Clacton Airport


Codes: EGSQ/
Name: Clacton Airport
City: Clacton-on-Sea
Country: United Kingdom
Elevation: 37 ft.
Website:
Wikipedia:

Photos at Clacton Airport


   Photos courtesy of SpottingLog. You can add your own sightings and photos by signing up for a free trial today.



No photos found.

Weather at Clacton Airport


Time (UTC)DescriptionTempratureWindCloud coverageVisibilityPressureHumidity
16-Jun-2024 12:00Light Rain16°C11 mph, W73%10000m1001hPa74%
16-Jun-2024 15:00Light Rain17°C7 mph, W45%10000m1002hPa68%
16-Jun-2024 18:00Light Rain17°C11 mph, SW50%10000m1004hPa71%
16-Jun-2024 21:00Light Rain14°C18 mph, SW74%10000m1006hPa86%
17-Jun-2024 00:00Scattered Clouds13°C13 mph, SW45%10000m1007hPa89%
17-Jun-2024 03:00Broken Clouds12°C13 mph, SW64%10000m1008hPa85%
17-Jun-2024 06:00Scattered Clouds12°C13 mph, SW35%10000m1009hPa84%
17-Jun-2024 09:00Clear Sky15°C13 mph, SW0%10000m1011hPa73%
17-Jun-2024 12:00Clear Sky16°C9 mph, SW0%10000m1011hPa66%
17-Jun-2024 15:00Scattered Clouds17°C13 mph, S37%10000m1011hPa71%
17-Jun-2024 18:00Broken Clouds17°C11 mph, SW52%10000m1012hPa73%
17-Jun-2024 21:00Overcast Clouds16°C11 mph, SW100%10000m1013hPa81%
18-Jun-2024 00:00Overcast Clouds14°C7 mph, NW100%10000m1014hPa83%
18-Jun-2024 03:00Broken Clouds13°C7 mph, NW68%10000m1014hPa83%
18-Jun-2024 06:00Scattered Clouds13°C7 mph, N49%10000m1015hPa85%
18-Jun-2024 09:00Overcast Clouds16°C4 mph, NE100%10000m1015hPa81%
18-Jun-2024 12:00Overcast Clouds16°C9 mph, E100%10000m1016hPa81%
18-Jun-2024 15:00Light Rain16°C4 mph, E87%10000m1016hPa76%
18-Jun-2024 18:00Light Rain16°C7 mph, NE58%10000m1017hPa81%
18-Jun-2024 21:00Light Rain14°C13 mph, NE4%10000m1019hPa88%
19-Jun-2024 00:00Scattered Clouds13°C11 mph, NE39%10000m1021hPa88%
19-Jun-2024 03:00Overcast Clouds12°C9 mph, NE100%10000m1022hPa92%
19-Jun-2024 06:00Overcast Clouds13°C13 mph, NE96%10000m1023hPa91%
19-Jun-2024 09:00Scattered Clouds14°C9 mph, E32%10000m1024hPa78%
19-Jun-2024 12:00Broken Clouds14°C9 mph, E60%10000m1025hPa78%
19-Jun-2024 15:00Broken Clouds15°C9 mph, SE73%10000m1024hPa74%
19-Jun-2024 18:00Scattered Clouds15°C7 mph, E39%10000m1024hPa72%
19-Jun-2024 21:00Clear Sky14°C7 mph, E6%10000m1023hPa76%
20-Jun-2024 00:00Scattered Clouds14°C7 mph, E43%10000m1022hPa74%
20-Jun-2024 03:00Overcast Clouds14°C9 mph, E93%10000m1021hPa72%
20-Jun-2024 06:00Broken Clouds15°C9 mph, E69%10000m1020hPa76%
20-Jun-2024 09:00Broken Clouds16°C9 mph, E70%10000m1018hPa79%
20-Jun-2024 12:00Broken Clouds16°C13 mph, NE84%10000m1017hPa78%
20-Jun-2024 15:00Overcast Clouds16°C16 mph, NE95%10000m1014hPa74%
20-Jun-2024 18:00Overcast Clouds15°C11 mph, NE97%10000m1013hPa77%
20-Jun-2024 21:00Broken Clouds15°C13 mph, N83%10000m1012hPa71%
21-Jun-2024 00:00Light Rain14°C13 mph, N91%10000m1010hPa73%
21-Jun-2024 03:00Light Rain15°C9 mph, N100%10000m1008hPa85%
21-Jun-2024 06:00Light Rain14°C13 mph, NW100%10000m1008hPa86%
21-Jun-2024 09:00Light Rain13°C7 mph, NW100%10000m1010hPa81%